Hlavní strana
METAR-TAF:

METAR-TAF

Letiště :

Fairhope, Alabama, Spojené státy americké

zeměpisná šířka: 30-27-38N, zeměpisná délka: 087-52-37W, výška: 28 m

Aktuální stav počasí

Zpráva byla vytvořena před 34 minutami, v 23:15 UTC
Východní vítr 3 kt
Teplota 8°C
Vlhkost vzduchu 100%
Tlak 1016 hPa
Viditelnost: 16.1 km
Oblačno až skoro zataženo ve výšce 1000 ft
Zataženo ve výšce 2000 ft
slabé mrholení

METAR: KCQF 262315Z AUTO 09003KT 10SM -DZ BKN010 OVC020 08/08 A3001 RMK AO2 P0001

Čas: 17:49 (23:49 UTC)


TAF: chybějící

Stav a předpovědi počasí z více než 4 000 letišť (zprávy METAR a TAF).

Červené a žluté tečky na mapě představují dostupné meteorologické stanice.

Když kurzor umístíte na tečku, zobrazí se název stanice.

Pak kliknutím zobrazíte stav a předpověď počasí.

Chcete-li změnit mapu, kliknutím na zelené tlačítko se znaménkem +mapu přiblížíte, kliknutím na zelené tlačítko se znaménkem – mapu oddálíte a kliknutím na zelené šipky přejdete na sousední mapy.


METAR-TAF: